sensor_id;sensor_type;location;lat;lon;timestamp;P1;durP1;ratioP1;P2;durP2;ratioP2
64063;SDS011;50314;50.618;10.642;2022-11-02T00:00:30;2.10;;;1.60;;
64063;SDS011;50314;50.618;10.642;2022-11-02T00:02:57;3.47;;;2.10;;
64063;SDS011;50314;50.618;10.642;2022-11-02T00:05:22;2.35;;;1.60;;
64063;SDS011;50314;50.618;10.642;2022-11-02T00:07:48;2.42;;;1.85;;
64063;SDS011;50314;50.618;10.642;2022-11-02T00:10:14;2.50;;;2.00;;
64063;SDS011;50314;50.618;10.642;2022-11-02T00:12:40;2.95;;;1.90;;
64063;SDS011;50314;50.618;10.642;2022-11-02T00:15:05;2.28;;;1.67;;
64063;SDS011;50314;50.618;10.642;2022-11-02T00:17:31;2.28;;;1.70;;
64063;SDS011;50314;50.618;10.642;2022-11-02T00:19:58;2.75;;;1.80;;
64063;SDS011;50314;50.618;10.642;2022-11-02T00:22:24;2.20;;;1.70;;
64063;SDS011;50314;50.618;10.642;2022-11-02T00:24:50;2.60;;;1.75;;
64063;SDS011;50314;50.618;10.642;2022-11-02T00:27:16;2.63;;;1.70;;
64063;SDS011;50314;50.618;10.642;2022-11-02T00:29:41;2.30;;;1.60;;
64063;SDS011;50314;50.618;10.642;2022-11-02T00:32:07;2.15;;;1.67;;
64063;SDS011;50314;50.618;10.642;2022-11-02T00:34:32;3.40;;;1.73;;
64063;SDS011;50314;50.618;10.642;2022-11-02T00:36:58;2.80;;;2.00;;
64063;SDS011;50314;50.618;10.642;2022-11-02T00:39:23;1.73;;;1.48;;
64063;SDS011;50314;50.618;10.642;2022-11-02T00:41:48;2.67;;;1.70;;
64063;SDS011;50314;50.618;10.642;2022-11-02T00:44:14;4.75;;;1.60;;
64063;SDS011;50314;50.618;10.642;2022-11-02T00:46:39;2.78;;;1.60;;
64063;SDS011;50314;50.618;10.642;2022-11-02T00:49:04;4.07;;;1.50;;
64063;SDS011;50314;50.618;10.642;2022-11-02T00:51:30;2.85;;;1.50;;
64063;SDS011;50314;50.618;10.642;2022-11-02T00:53:55;1.55;;;1.45;;
64063;SDS011;50314;50.618;10.642;2022-11-02T00:56:21;3.28;;;1.73;;
64063;SDS011;50314;50.618;10.642;2022-11-02T00:58:46;1.77;;;1.20;;
64063;SDS011;50314;50.618;10.642;2022-11-02T01:01:11;2.05;;;1.67;;
64063;SDS011;50314;50.618;10.642;2022-11-02T01:03:37;2.33;;;1.40;;
64063;SDS011;50314;50.618;10.642;2022-11-02T01:06:06;2.08;;;1.70;;
64063;SDS011;50314;50.618;10.642;2022-11-02T01:08:32;1.85;;;1.48;;
64063;SDS011;50314;50.618;10.642;2022-11-02T01:11:07;2.25;;;1.42;;
64063;SDS011;50314;50.618;10.642;2022-11-02T01:13:37;1.45;;;1.27;;
64063;SDS011;50314;50.618;10.642;2022-11-02T01:16:03;1.83;;;1.40;;
64063;SDS011;50314;50.618;10.642;2022-11-02T01:18:29;2.03;;;1.30;;
64063;SDS011;50314;50.618;10.642;2022-11-02T01:20:55;1.60;;;1.17;;
64063;SDS011;50314;50.618;10.642;2022-11-02T01:23:21;2.20;;;1.30;;
64063;SDS011;50314;50.618;10.642;2022-11-02T01:25:46;1.40;;;1.02;;
64063;SDS011;50314;50.618;10.642;2022-11-02T01:28:12;1.77;;;1.60;;
64063;SDS011;50314;50.618;10.642;2022-11-02T01:30:37;1.80;;;1.30;;
64063;SDS011;50314;50.618;10.642;2022-11-02T01:33:06;1.90;;;1.33;;
64063;SDS011;50314;50.618;10.642;2022-11-02T01:35:31;2.00;;;1.35;;
64063;SDS011;50314;50.618;10.642;2022-11-02T01:37:57;1.85;;;1.27;;
64063;SDS011;50314;50.618;10.642;2022-11-02T01:40:22;1.73;;;1.30;;
64063;SDS011;50314;50.618;10.642;2022-11-02T01:42:48;2.15;;;1.15;;
64063;SDS011;50314;50.618;10.642;2022-11-02T01:45:14;1.80;;;1.17;;
64063;SDS011;50314;50.618;10.642;2022-11-02T01:47:40;1.67;;;1.25;;
64063;SDS011;50314;50.618;10.642;2022-11-02T01:50:11;1.75;;;1.20;;
64063;SDS011;50314;50.618;10.642;2022-11-02T01:52:40;1.42;;;1.08;;
64063;SDS011;50314;50.618;10.642;2022-11-02T01:55:09;2.67;;;1.80;;
64063;SDS011;50314;50.618;10.642;2022-11-02T01:57:38;1.92;;;1.13;;
64063;SDS011;50314;50.618;10.642;2022-11-02T02:00:09;1.20;;;1.10;;
64063;SDS011;50314;50.618;10.642;2022-11-02T02:02:38;2.97;;;1.17;;
64063;SDS011;50314;50.618;10.642;2022-11-02T02:05:09;2.55;;;1.77;;
64063;SDS011;50314;50.618;10.642;2022-11-02T02:07:38;2.60;;;1.17;;
64063;SDS011;50314;50.618;10.642;2022-11-02T02:10:05;1.20;;;1.10;;
64063;SDS011;50314;50.618;10.642;2022-11-02T02:12:31;1.65;;;1.13;;
64063;SDS011;50314;50.618;10.642;2022-11-02T02:14:58;1.10;;;0.98;;
64063;SDS011;50314;50.618;10.642;2022-11-02T02:31:39;1.33;;;1.00;;
64063;SDS011;50314;50.618;10.642;2022-11-02T02:34:18;1.88;;;1.33;;
64063;SDS011;50314;50.618;10.642;2022-11-02T02:36:48;2.13;;;1.20;;
64063;SDS011;50314;50.618;10.642;2022-11-02T02:42:06;1.23;;;0.90;;
64063;SDS011;50314;50.618;10.642;2022-11-02T02:45:10;2.15;;;1.10;;
64063;SDS011;50314;50.618;10.642;2022-11-02T02:47:43;1.13;;;1.00;;
64063;SDS011;50314;50.618;10.642;2022-11-02T02:50:34;1.85;;;1.05;;
64063;SDS011;50314;50.618;10.642;2022-11-02T02:53:05;1.50;;;0.90;;
64063;SDS011;50314;50.618;10.642;2022-11-02T02:55:33;1.80;;;1.00;;
64063;SDS011;50314;50.618;10.642;2022-11-02T02:58:02;1.90;;;0.90;;
64063;SDS011;50314;50.618;10.642;2022-11-02T03:00:35;1.70;;;1.15;;
64063;SDS011;50314;50.618;10.642;2022-11-02T03:03:00;1.17;;;0.85;;
64063;SDS011;50314;50.618;10.642;2022-11-02T03:05:32;1.15;;;1.08;;
64063;SDS011;50314;50.618;10.642;2022-11-02T03:08:01;1.70;;;0.93;;
64063;SDS011;50314;50.618;10.642;2022-11-02T03:10:35;1.55;;;1.23;;
64063;SDS011;50314;50.618;10.642;2022-11-02T03:13:22;1.45;;;0.93;;
64063;SDS011;50314;50.618;10.642;2022-11-02T03:16:11;2.05;;;0.95;;
64063;SDS011;50314;50.618;10.642;2022-11-02T03:21:42;1.83;;;1.08;;
64063;SDS011;50314;50.618;10.642;2022-11-02T03:24:13;1.70;;;0.80;;
64063;SDS011;50314;50.618;10.642;2022-11-02T03:26:48;0.90;;;0.90;;
64063;SDS011;50314;50.618;10.642;2022-11-02T03:29:37;1.45;;;1.10;;
64063;SDS011;50314;50.618;10.642;2022-11-02T03:32:08;1.70;;;1.10;;
64063;SDS011;50314;50.618;10.642;2022-11-02T03:34:42;1.13;;;0.82;;
64063;SDS011;50314;50.618;10.642;2022-11-02T03:37:19;1.33;;;0.80;;
64063;SDS011;50314;50.618;10.642;2022-11-02T03:40:04;1.30;;;0.95;;
64063;SDS011;50314;50.618;10.642;2022-11-02T03:42:58;1.45;;;1.35;;
64063;SDS011;50314;50.618;10.642;2022-11-02T03:45:29;1.58;;;1.30;;
64063;SDS011;50314;50.618;10.642;2022-11-02T03:48:00;1.23;;;0.80;;
64063;SDS011;50314;50.618;10.642;2022-11-02T03:50:28;1.17;;;1.00;;
64063;SDS011;50314;50.618;10.642;2022-11-02T03:52:55;1.13;;;0.85;;
64063;SDS011;50314;50.618;10.642;2022-11-02T03:55:29;1.98;;;1.00;;
64063;SDS011;50314;50.618;10.642;2022-11-02T03:57:58;1.20;;;1.00;;
64063;SDS011;50314;50.618;10.642;2022-11-02T04:00:24;1.73;;;0.90;;
64063;SDS011;50314;50.618;10.642;2022-11-02T04:02:52;1.67;;;1.15;;
64063;SDS011;50314;50.618;10.642;2022-11-02T04:05:26;1.15;;;1.02;;
64063;SDS011;50314;50.618;10.642;2022-11-02T04:07:55;1.30;;;0.85;;
64063;SDS011;50314;50.618;10.642;2022-11-02T04:10:40;1.20;;;1.10;;
64063;SDS011;50314;50.618;10.642;2022-11-02T04:13:25;2.67;;;1.20;;
64063;SDS011;50314;50.618;10.642;2022-11-02T04:16:09;1.75;;;0.93;;
64063;SDS011;50314;50.618;10.642;2022-11-02T04:18:34;1.35;;;1.00;;
64063;SDS011;50314;50.618;10.642;2022-11-02T04:21:18;1.23;;;0.70;;
64063;SDS011;50314;50.618;10.642;2022-11-02T04:23:44;2.42;;;1.27;;
64063;SDS011;50314;50.618;10.642;2022-11-02T04:26:27;1.05;;;0.90;;
64063;SDS011;50314;50.618;10.642;2022-11-02T04:28:53;2.00;;;1.10;;
64063;SDS011;50314;50.618;10.642;2022-11-02T04:31:18;2.03;;;0.90;;
64063;SDS011;50314;50.618;10.642;2022-11-02T04:33:44;1.63;;;1.00;;
64063;SDS011;50314;50.618;10.642;2022-11-02T04:36:09;1.05;;;0.60;;
64063;SDS011;50314;50.618;10.642;2022-11-02T04:38:35;0.80;;;0.80;;
64063;SDS011;50314;50.618;10.642;2022-11-02T04:41:07;0.70;;;0.70;;
64063;SDS011;50314;50.618;10.642;2022-11-02T04:43:55;2.42;;;0.90;;
64063;SDS011;50314;50.618;10.642;2022-11-02T04:46:22;0.82;;;0.70;;
64063;SDS011;50314;50.618;10.642;2022-11-02T04:48:48;0.90;;;0.80;;
64063;SDS011;50314;50.618;10.642;2022-11-02T04:51:14;0.80;;;0.80;;
64063;SDS011;50314;50.618;10.642;2022-11-02T04:53:40;1.65;;;0.98;;
64063;SDS011;50314;50.618;10.642;2022-11-02T04:56:05;0.85;;;0.80;;
64063;SDS011;50314;50.618;10.642;2022-11-02T04:58:31;1.58;;;0.93;;
64063;SDS011;50314;50.618;10.642;2022-11-02T05:00:57;0.82;;;0.82;;
64063;SDS011;50314;50.618;10.642;2022-11-02T05:03:22;1.45;;;1.00;;
64063;SDS011;50314;50.618;10.642;2022-11-02T05:05:52;1.70;;;1.00;;
64063;SDS011;50314;50.618;10.642;2022-11-02T05:08:18;1.25;;;1.15;;
64063;SDS011;50314;50.618;10.642;2022-11-02T05:10:44;1.30;;;0.85;;
64063;SDS011;50314;50.618;10.642;2022-11-02T05:13:09;1.17;;;0.90;;
64063;SDS011;50314;50.618;10.642;2022-11-02T05:15:37;1.13;;;0.77;;
64063;SDS011;50314;50.618;10.642;2022-11-02T05:18:03;1.33;;;0.93;;
64063;SDS011;50314;50.618;10.642;2022-11-02T05:20:28;1.75;;;1.00;;
64063;SDS011;50314;50.618;10.642;2022-11-02T05:22:53;1.58;;;0.73;;
64063;SDS011;50314;50.618;10.642;2022-11-02T05:25:19;1.15;;;0.70;;
64063;SDS011;50314;50.618;10.642;2022-11-02T05:27:44;0.98;;;0.98;;
64063;SDS011;50314;50.618;10.642;2022-11-02T05:30:10;1.58;;;1.13;;
64063;SDS011;50314;50.618;10.642;2022-11-02T05:32:36;1.52;;;1.00;;
64063;SDS011;50314;50.618;10.642;2022-11-02T05:35:01;3.22;;;1.10;;
64063;SDS011;50314;50.618;10.642;2022-11-02T05:37:27;1.80;;;0.88;;
64063;SDS011;50314;50.618;10.642;2022-11-02T05:39:52;2.35;;;0.90;;
64063;SDS011;50314;50.618;10.642;2022-11-02T05:42:17;1.27;;;0.80;;
64063;SDS011;50314;50.618;10.642;2022-11-02T05:44:43;1.30;;;0.80;;
64063;SDS011;50314;50.618;10.642;2022-11-02T05:47:08;2.33;;;1.08;;
64063;SDS011;50314;50.618;10.642;2022-11-02T05:49:33;1.15;;;0.75;;
64063;SDS011;50314;50.618;10.642;2022-11-02T05:51:59;1.35;;;0.80;;
64063;SDS011;50314;50.618;10.642;2022-11-02T05:54:24;1.30;;;0.75;;
64063;SDS011;50314;50.618;10.642;2022-11-02T05:56:50;2.13;;;1.00;;
64063;SDS011;50314;50.618;10.642;2022-11-02T05:59:15;1.05;;;0.85;;
64063;SDS011;50314;50.618;10.642;2022-11-02T06:01:41;1.55;;;1.00;;
64063;SDS011;50314;50.618;10.642;2022-11-02T06:04:06;1.30;;;0.85;;
64063;SDS011;50314;50.618;10.642;2022-11-02T06:06:32;4.28;;;1.08;;
64063;SDS011;50314;50.618;10.642;2022-11-02T06:08:57;1.42;;;0.80;;
64063;SDS011;50314;50.618;10.642;2022-11-02T06:11:22;3.55;;;1.02;;
64063;SDS011;50314;50.618;10.642;2022-11-02T06:13:49;1.75;;;0.88;;
64063;SDS011;50314;50.618;10.642;2022-11-02T06:16:15;4.75;;;0.93;;
64063;SDS011;50314;50.618;10.642;2022-11-02T06:18:41;1.23;;;0.73;;
64063;SDS011;50314;50.618;10.642;2022-11-02T06:21:06;1.00;;;0.75;;
64063;SDS011;50314;50.618;10.642;2022-11-02T06:23:32;1.75;;;0.90;;
64063;SDS011;50314;50.618;10.642;2022-11-02T06:25:58;1.75;;;1.00;;
64063;SDS011;50314;50.618;10.642;2022-11-02T06:28:24;0.75;;;0.75;;
64063;SDS011;50314;50.618;10.642;2022-11-02T06:30:51;1.52;;;1.00;;
64063;SDS011;50314;50.618;10.642;2022-11-02T06:33:17;1.88;;;0.63;;
64063;SDS011;50314;50.618;10.642;2022-11-02T06:35:44;1.17;;;0.73;;
64063;SDS011;50314;50.618;10.642;2022-11-02T06:38:14;1.58;;;1.00;;
64063;SDS011;50314;50.618;10.642;2022-11-02T06:40:40;1.95;;;0.93;;
64063;SDS011;50314;50.618;10.642;2022-11-02T06:43:06;1.80;;;0.90;;
64063;SDS011;50314;50.618;10.642;2022-11-02T06:45:31;1.10;;;0.70;;
64063;SDS011;50314;50.618;10.642;2022-11-02T06:47:57;1.92;;;1.17;;
64063;SDS011;50314;50.618;10.642;2022-11-02T06:50:22;2.03;;;0.98;;
64063;SDS011;50314;50.618;10.642;2022-11-02T06:52:48;2.05;;;0.98;;
64063;SDS011;50314;50.618;10.642;2022-11-02T06:55:15;2.47;;;1.10;;
64063;SDS011;50314;50.618;10.642;2022-11-02T06:57:41;1.27;;;0.98;;
64063;SDS011;50314;50.618;10.642;2022-11-02T07:00:08;2.28;;;0.90;;
64063;SDS011;50314;50.618;10.642;2022-11-02T07:02:37;2.47;;;1.00;;
64063;SDS011;50314;50.618;10.642;2022-11-02T07:05:03;1.20;;;1.00;;
64063;SDS011;50314;50.618;10.642;2022-11-02T07:07:29;1.13;;;0.80;;
64063;SDS011;50314;50.618;10.642;2022-11-02T07:09:54;2.70;;;1.10;;
64063;SDS011;50314;50.618;10.642;2022-11-02T07:12:19;1.15;;;0.90;;
64063;SDS011;50314;50.618;10.642;2022-11-02T07:14:45;1.23;;;1.10;;
64063;SDS011;50314;50.618;10.642;2022-11-02T07:17:10;1.35;;;0.77;;
64063;SDS011;50314;50.618;10.642;2022-11-02T07:19:36;4.10;;;1.20;;
64063;SDS011;50314;50.618;10.642;2022-11-02T07:22:01;2.83;;;1.33;;
64063;SDS011;50314;50.618;10.642;2022-11-02T07:24:26;1.33;;;0.90;;
64063;SDS011;50314;50.618;10.642;2022-11-02T07:26:52;1.55;;;1.10;;
64063;SDS011;50314;50.618;10.642;2022-11-02T07:29:17;1.92;;;0.93;;
64063;SDS011;50314;50.618;10.642;2022-11-02T07:31:43;1.92;;;1.10;;
64063;SDS011;50314;50.618;10.642;2022-11-02T07:34:09;1.48;;;0.80;;
64063;SDS011;50314;50.618;10.642;2022-11-02T07:36:35;1.10;;;0.80;;
64063;SDS011;50314;50.618;10.642;2022-11-02T07:39:00;1.30;;;0.90;;
64063;SDS011;50314;50.618;10.642;2022-11-02T07:41:26;1.52;;;1.00;;
64063;SDS011;50314;50.618;10.642;2022-11-02T07:43:51;2.33;;;1.33;;
64063;SDS011;50314;50.618;10.642;2022-11-02T07:46:16;2.00;;;1.00;;
64063;SDS011;50314;50.618;10.642;2022-11-02T07:48:42;1.20;;;0.80;;
64063;SDS011;50314;50.618;10.642;2022-11-02T07:51:08;3.03;;;1.40;;
64063;SDS011;50314;50.618;10.642;2022-11-02T07:53:35;2.70;;;1.02;;
64063;SDS011;50314;50.618;10.642;2022-11-02T07:56:01;3.67;;;1.10;;
64063;SDS011;50314;50.618;10.642;2022-11-02T08:00:55;2.33;;;1.03;;
64063;SDS011;50314;50.618;10.642;2022-11-02T08:03:22;1.45;;;0.98;;
64063;SDS011;50314;50.618;10.642;2022-11-02T08:05:48;1.80;;;0.95;;
64063;SDS011;50314;50.618;10.642;2022-11-02T08:08:14;1.70;;;1.05;;
64063;SDS011;50314;50.618;10.642;2022-11-02T08:10:42;1.48;;;1.10;;
64063;SDS011;50314;50.618;10.642;2022-11-02T08:13:10;2.00;;;1.00;;
64063;SDS011;50314;50.618;10.642;2022-11-02T08:15:37;2.25;;;0.93;;
64063;SDS011;50314;50.618;10.642;2022-11-02T08:18:06;1.77;;;0.90;;
64063;SDS011;50314;50.618;10.642;2022-11-02T08:20:36;2.03;;;1.35;;
64063;SDS011;50314;50.618;10.642;2022-11-02T08:23:02;2.72;;;0.93;;
64063;SDS011;50314;50.618;10.642;2022-11-02T08:25:28;1.08;;;0.90;;
64063;SDS011;50314;50.618;10.642;2022-11-02T08:27:57;1.73;;;0.95;;
64063;SDS011;50314;50.618;10.642;2022-11-02T08:30:27;1.58;;;0.90;;
64063;SDS011;50314;50.618;10.642;2022-11-02T08:32:54;0.80;;;0.70;;
64063;SDS011;50314;50.618;10.642;2022-11-02T08:35:20;1.77;;;1.10;;
64063;SDS011;50314;50.618;10.642;2022-11-02T08:37:51;1.88;;;1.00;;
64063;SDS011;50314;50.618;10.642;2022-11-02T08:40:18;6.78;;;1.35;;
64063;SDS011;50314;50.618;10.642;2022-11-02T08:42:44;1.80;;;1.13;;
64063;SDS011;50314;50.618;10.642;2022-11-02T08:45:09;2.33;;;1.10;;
64063;SDS011;50314;50.618;10.642;2022-11-02T08:47:38;2.63;;;1.40;;
64063;SDS011;50314;50.618;10.642;2022-11-02T08:50:05;2.45;;;1.00;;
64063;SDS011;50314;50.618;10.642;2022-11-02T08:52:33;1.98;;;1.23;;
64063;SDS011;50314;50.618;10.642;2022-11-02T08:55:00;3.60;;;1.35;;
64063;SDS011;50314;50.618;10.642;2022-11-02T08:57:25;2.95;;;1.08;;
64063;SDS011;50314;50.618;10.642;2022-11-02T08:59:50;2.25;;;0.93;;
64063;SDS011;50314;50.618;10.642;2022-11-02T09:02:16;2.92;;;1.10;;
64063;SDS011;50314;50.618;10.642;2022-11-02T09:04:41;2.78;;;1.27;;
64063;SDS011;50314;50.618;10.642;2022-11-02T09:07:07;2.60;;;0.98;;
64063;SDS011;50314;50.618;10.642;2022-11-02T09:09:32;1.92;;;1.15;;
64063;SDS011;50314;50.618;10.642;2022-11-02T09:11:57;2.38;;;1.10;;
64063;SDS011;50314;50.618;10.642;2022-11-02T09:14:23;3.42;;;1.20;;
64063;SDS011;50314;50.618;10.642;2022-11-02T09:16:48;9.57;;;1.70;;
64063;SDS011;50314;50.618;10.642;2022-11-02T09:19:14;2.58;;;0.77;;
64063;SDS011;50314;50.618;10.642;2022-11-02T09:21:39;1.77;;;0.75;;
64063;SDS011;50314;50.618;10.642;2022-11-02T09:24:04;1.80;;;1.05;;
64063;SDS011;50314;50.618;10.642;2022-11-02T09:26:30;2.35;;;1.02;;
64063;SDS011;50314;50.618;10.642;2022-11-02T09:28:55;2.83;;;1.05;;
64063;SDS011;50314;50.618;10.642;2022-11-02T09:31:21;3.35;;;0.90;;
64063;SDS011;50314;50.618;10.642;2022-11-02T09:33:46;2.47;;;0.95;;
64063;SDS011;50314;50.618;10.642;2022-11-02T09:36:11;1.42;;;1.00;;
64063;SDS011;50314;50.618;10.642;2022-11-02T09:38:37;2.58;;;1.15;;
64063;SDS011;50314;50.618;10.642;2022-11-02T09:41:05;3.35;;;1.33;;
64063;SDS011;50314;50.618;10.642;2022-11-02T09:43:51;2.58;;;0.90;;
64063;SDS011;50314;50.618;10.642;2022-11-02T09:46:42;2.60;;;1.05;;
64063;SDS011;50314;50.618;10.642;2022-11-02T09:51:43;4.00;;;1.20;;
64063;SDS011;50314;50.618;10.642;2022-11-02T09:56:41;3.40;;;1.33;;
64063;SDS011;50314;50.618;10.642;2022-11-02T09:59:11;3.03;;;1.40;;
64063;SDS011;50314;50.618;10.642;2022-11-02T10:04:31;1.67;;;1.00;;
64063;SDS011;50314;50.618;10.642;2022-11-02T10:15:36;3.92;;;1.17;;
64063;SDS011;50314;50.618;10.642;2022-11-02T10:20:45;3.55;;;0.98;;
64063;SDS011;50314;50.618;10.642;2022-11-02T10:23:30;1.63;;;0.93;;
64063;SDS011;50314;50.618;10.642;2022-11-02T10:25:59;2.45;;;1.05;;
64063;SDS011;50314;50.618;10.642;2022-11-02T10:28:28;2.35;;;1.00;;
64063;SDS011;50314;50.618;10.642;2022-11-02T10:30:57;2.67;;;1.15;;
64063;SDS011;50314;50.618;10.642;2022-11-02T10:33:25;2.00;;;1.10;;
64063;SDS011;50314;50.618;10.642;2022-11-02T10:39:05;3.70;;;1.40;;
64063;SDS011;50314;50.618;10.642;2022-11-02T10:44:21;2.47;;;1.20;;
64063;SDS011;50314;50.618;10.642;2022-11-02T10:47:02;3.10;;;1.27;;
64063;SDS011;50314;50.618;10.642;2022-11-02T10:52:30;1.50;;;1.00;;
64063;SDS011;50314;50.618;10.642;2022-11-02T10:55:02;3.40;;;1.30;;
64063;SDS011;50314;50.618;10.642;2022-11-02T10:57:28;2.58;;;1.25;;
64063;SDS011;50314;50.618;10.642;2022-11-02T11:05:33;2.28;;;1.00;;
64063;SDS011;50314;50.618;10.642;2022-11-02T11:11:14;2.67;;;0.93;;
64063;SDS011;50314;50.618;10.642;2022-11-02T11:13:45;2.83;;;1.27;;
64063;SDS011;50314;50.618;10.642;2022-11-02T11:16:21;2.63;;;1.00;;
64063;SDS011;50314;50.618;10.642;2022-11-02T11:19:19;1.75;;;0.80;;
64063;SDS011;50314;50.618;10.642;2022-11-02T11:21:47;2.00;;;0.80;;
64063;SDS011;50314;50.618;10.642;2022-11-02T11:24:33;1.27;;;1.00;;
64063;SDS011;50314;50.618;10.642;2022-11-02T11:29:37;4.05;;;1.13;;
64063;SDS011;50314;50.618;10.642;2022-11-02T11:32:15;1.98;;;0.68;;
64063;SDS011;50314;50.618;10.642;2022-11-02T11:34:44;1.80;;;0.90;;
64063;SDS011;50314;50.618;10.642;2022-11-02T11:37:19;2.33;;;1.20;;
64063;SDS011;50314;50.618;10.642;2022-11-02T11:39:44;1.35;;;0.70;;
64063;SDS011;50314;50.618;10.642;2022-11-02T11:42:18;1.77;;;0.80;;
64063;SDS011;50314;50.618;10.642;2022-11-02T11:44:50;1.65;;;0.85;;
64063;SDS011;50314;50.618;10.642;2022-11-02T11:47:25;2.45;;;1.08;;
64063;SDS011;50314;50.618;10.642;2022-11-02T11:49:53;1.10;;;0.70;;
64063;SDS011;50314;50.618;10.642;2022-11-02T11:52:19;2.17;;;0.88;;
64063;SDS011;50314;50.618;10.642;2022-11-02T11:54:52;1.52;;;0.60;;
64063;SDS011;50314;50.618;10.642;2022-11-02T11:57:23;2.25;;;0.80;;
64063;SDS011;50314;50.618;10.642;2022-11-02T11:59:52;3.13;;;0.95;;
64063;SDS011;50314;50.618;10.642;2022-11-02T12:02:23;3.40;;;0.75;;
64063;SDS011;50314;50.618;10.642;2022-11-02T12:07:34;2.20;;;0.80;;
64063;SDS011;50314;50.618;10.642;2022-11-02T12:15:48;2.33;;;0.80;;
64063;SDS011;50314;50.618;10.642;2022-11-02T12:18:30;1.90;;;1.00;;
64063;SDS011;50314;50.618;10.642;2022-11-02T12:35:29;1.50;;;0.75;;
64063;SDS011;50314;50.618;10.642;2022-11-02T12:51:23;3.22;;;1.00;;
64063;SDS011;50314;50.618;10.642;2022-11-02T12:53:57;2.42;;;0.93;;
64063;SDS011;50314;50.618;10.642;2022-11-02T12:59:03;2.40;;;0.95;;
64063;SDS011;50314;50.618;10.642;2022-11-02T13:01:36;1.17;;;0.65;;
64063;SDS011;50314;50.618;10.642;2022-11-02T13:04:12;0.88;;;0.75;;
64063;SDS011;50314;50.618;10.642;2022-11-02T13:06:45;2.75;;;0.98;;
64063;SDS011;50314;50.618;10.642;2022-11-02T13:09:30;1.65;;;0.95;;
64063;SDS011;50314;50.618;10.642;2022-11-02T13:12:13;1.92;;;0.80;;
64063;SDS011;50314;50.618;10.642;2022-11-02T13:14:50;2.05;;;0.80;;
64063;SDS011;50314;50.618;10.642;2022-11-02T13:17:19;1.77;;;0.80;;
64063;SDS011;50314;50.618;10.642;2022-11-02T13:19:59;1.58;;;0.80;;
64063;SDS011;50314;50.618;10.642;2022-11-02T13:22:33;1.75;;;0.70;;
64063;SDS011;50314;50.618;10.642;2022-11-02T13:25:03;1.83;;;0.90;;
64063;SDS011;50314;50.618;10.642;2022-11-02T13:27:49;1.58;;;1.13;;
64063;SDS011;50314;50.618;10.642;2022-11-02T13:30:18;1.17;;;0.75;;
64063;SDS011;50314;50.618;10.642;2022-11-02T13:32:45;0.98;;;0.65;;
64063;SDS011;50314;50.618;10.642;2022-11-02T13:35:23;1.67;;;0.77;;
64063;SDS011;50314;50.618;10.642;2022-11-02T13:38:02;1.90;;;1.08;;
64063;SDS011;50314;50.618;10.642;2022-11-02T13:40:37;2.53;;;0.95;;
64063;SDS011;50314;50.618;10.642;2022-11-02T13:48:59;3.08;;;1.05;;
64063;SDS011;50314;50.618;10.642;2022-11-02T13:56:50;0.95;;;0.88;;
64063;SDS011;50314;50.618;10.642;2022-11-02T13:59:39;1.42;;;0.50;;
64063;SDS011;50314;50.618;10.642;2022-11-02T14:02:05;2.92;;;0.90;;
64063;SDS011;50314;50.618;10.642;2022-11-02T14:04:36;1.95;;;1.05;;
64063;SDS011;50314;50.618;10.642;2022-11-02T14:07:04;2.97;;;0.77;;
64063;SDS011;50314;50.618;10.642;2022-11-02T14:09:35;2.10;;;0.90;;
64063;SDS011;50314;50.618;10.642;2022-11-02T14:14:41;2.70;;;1.02;;
64063;SDS011;50314;50.618;10.642;2022-11-02T14:17:16;3.70;;;1.02;;
64063;SDS011;50314;50.618;10.642;2022-11-02T14:22:11;1.90;;;0.73;;
64063;SDS011;50314;50.618;10.642;2022-11-02T14:37:19;1.85;;;0.98;;
64063;SDS011;50314;50.618;10.642;2022-11-02T14:40:22;1.15;;;0.70;;
64063;SDS011;50314;50.618;10.642;2022-11-02T14:42:50;2.42;;;0.70;;
64063;SDS011;50314;50.618;10.642;2022-11-02T14:45:33;1.63;;;0.73;;
64063;SDS011;50314;50.618;10.642;2022-11-02T14:48:12;1.25;;;0.70;;
64063;SDS011;50314;50.618;10.642;2022-11-02T14:50:40;1.52;;;0.73;;
64063;SDS011;50314;50.618;10.642;2022-11-02T14:53:23;1.75;;;0.88;;
64063;SDS011;50314;50.618;10.642;2022-11-02T14:55:52;1.63;;;0.70;;
64063;SDS011;50314;50.618;10.642;2022-11-02T14:58:19;2.13;;;0.70;;
64063;SDS011;50314;50.618;10.642;2022-11-02T15:03:34;2.97;;;0.85;;
64063;SDS011;50314;50.618;10.642;2022-11-02T15:08:27;1.75;;;1.05;;
64063;SDS011;50314;50.618;10.642;2022-11-02T15:10:56;0.98;;;0.55;;
64063;SDS011;50314;50.618;10.642;2022-11-02T15:13:22;1.15;;;0.68;;
64063;SDS011;50314;50.618;10.642;2022-11-02T15:26:18;1.73;;;0.80;;
64063;SDS011;50314;50.618;10.642;2022-11-02T15:28:50;1.33;;;0.80;;
64063;SDS011;50314;50.618;10.642;2022-11-02T15:31:19;1.38;;;0.93;;
64063;SDS011;50314;50.618;10.642;2022-11-02T15:33:50;1.05;;;0.68;;
64063;SDS011;50314;50.618;10.642;2022-11-02T15:36:24;3.15;;;1.00;;
64063;SDS011;50314;50.618;10.642;2022-11-02T15:38:54;1.77;;;1.02;;
64063;SDS011;50314;50.618;10.642;2022-11-02T15:49:13;2.17;;;1.00;;
64063;SDS011;50314;50.618;10.642;2022-11-02T15:52:01;1.15;;;0.95;;
64063;SDS011;50314;50.618;10.642;2022-11-02T16:02:50;2.17;;;1.20;;
64063;SDS011;50314;50.618;10.642;2022-11-02T16:05:23;2.35;;;1.10;;
64063;SDS011;50314;50.618;10.642;2022-11-02T16:07:51;2.47;;;1.20;;
64063;SDS011;50314;50.618;10.642;2022-11-02T16:12:46;2.22;;;1.20;;
64063;SDS011;50314;50.618;10.642;2022-11-02T16:15:19;8.25;;;1.80;;
64063;SDS011;50314;50.618;10.642;2022-11-02T16:17:48;3.67;;;2.05;;
64063;SDS011;50314;50.618;10.642;2022-11-02T16:20:19;3.65;;;1.92;;
64063;SDS011;50314;50.618;10.642;2022-11-02T16:28:00;3.78;;;1.60;;
64063;SDS011;50314;50.618;10.642;2022-11-02T16:30:34;3.40;;;2.38;;
64063;SDS011;50314;50.618;10.642;2022-11-02T16:33:01;4.13;;;2.05;;
64063;SDS011;50314;50.618;10.642;2022-11-02T16:35:27;4.40;;;2.70;;
64063;SDS011;50314;50.618;10.642;2022-11-02T16:37:53;4.70;;;2.28;;
64063;SDS011;50314;50.618;10.642;2022-11-02T16:40:19;5.13;;;2.40;;
64063;SDS011;50314;50.618;10.642;2022-11-02T16:42:46;3.80;;;2.17;;
64063;SDS011;50314;50.618;10.642;2022-11-02T16:45:57;4.10;;;2.70;;
64063;SDS011;50314;50.618;10.642;2022-11-02T16:48:25;4.15;;;1.98;;
64063;SDS011;50314;50.618;10.642;2022-11-02T16:53:37;4.38;;;2.00;;
64063;SDS011;50314;50.618;10.642;2022-11-02T16:56:13;2.97;;;1.83;;
64063;SDS011;50314;50.618;10.642;2022-11-02T16:58:44;5.03;;;2.40;;
64063;SDS011;50314;50.618;10.642;2022-11-02T17:01:22;4.18;;;2.72;;
64063;SDS011;50314;50.618;10.642;2022-11-02T17:03:48;3.85;;;2.45;;
64063;SDS011;50314;50.618;10.642;2022-11-02T17:06:14;4.75;;;2.80;;
64063;SDS011;50314;50.618;10.642;2022-11-02T17:08:40;4.82;;;2.70;;
64063;SDS011;50314;50.618;10.642;2022-11-02T17:11:11;4.00;;;2.67;;
64063;SDS011;50314;50.618;10.642;2022-11-02T17:13:43;4.45;;;2.42;;
64063;SDS011;50314;50.618;10.642;2022-11-02T17:16:14;4.35;;;2.45;;
64063;SDS011;50314;50.618;10.642;2022-11-02T17:18:40;3.50;;;2.42;;
64063;SDS011;50314;50.618;10.642;2022-11-02T17:23:38;4.15;;;2.55;;
64063;SDS011;50314;50.618;10.642;2022-11-02T17:31:17;4.32;;;2.97;;
64063;SDS011;50314;50.618;10.642;2022-11-02T17:33:45;4.90;;;3.00;;
64063;SDS011;50314;50.618;10.642;2022-11-02T17:36:11;5.05;;;2.90;;
64063;SDS011;50314;50.618;10.642;2022-11-02T17:38:38;4.90;;;2.80;;
64063;SDS011;50314;50.618;10.642;2022-11-02T17:41:03;4.28;;;3.00;;
64063;SDS011;50314;50.618;10.642;2022-11-02T17:43:52;5.22;;;3.00;;
64063;SDS011;50314;50.618;10.642;2022-11-02T17:46:17;4.65;;;2.92;;